ADDS METAR Data INFO
IDs: Format: Raw Decoded Include TAF

Data at: 2344 UTC 15 Dec 2017

KLWA 152335Z AUTO 26010G19KT 10SM SCT024 BKN037 OVC044 01/M04 A2987 RMK AO2 T00101045
KLWA 152315Z AUTO 28009G21KT 10SM SCT024 BKN028 OVC041 01/M04 A2988 RMK AO2 T00081043
KLWA 152255Z AUTO 27012G16KT 10SM SCT026 SCT034 OVC042 01/M05 A2988 RMK AO2 T00051049
KLWA 152235Z AUTO 28013G20KT 10SM SCT026 BKN034 OVC040 00/M06 A2988 RMK AO2 T00021056
KLWA 152215Z AUTO 27012G18KT 10SM SCT030 BKN035 OVC049 00/M06 A2987 RMK AO2 T00011060
KLWA 152155Z AUTO 28008G14KT 10SM BKN030 OVC037 00/M06 A2987 RMK AO2 T00001060
KLWA 152135Z AUTO 30013G17KT 10SM OVC032 00/M06 A2986 RMK AO2 T10031065
KLWA 152115Z AUTO 30011G15KT 10SM BKN032 OVC041 M01/M07 A2986 RMK AO2 T10061072
KLWA 152055Z AUTO 29009G18KT 10SM SCT033 OVC039 M01/M08 A2987 RMK AO2 T10081084
KLWA 152035Z AUTO 29011G22KT 10SM SCT036 OVC042 M01/M09 A2987 RMK AO2 T10101089
KLWA 152015Z AUTO 29012G22KT 10SM BKN036 OVC043 M01/M09 A2986 RMK AO2 T10081090
KLWA 151955Z AUTO 29009G20KT 10SM SCT034 OVC041 M01/M09 A2986 RMK AO2 T10101091
KLWA 151935Z AUTO 27009G17KT 10SM BKN034 OVC041 M01/M09 A2986 RMK AO2 T10121091
KLWA 151915Z AUTO 30012G17KT 10SM BKN034 OVC043 M01/M09 A2986 RMK AO2 T10151091
KLWA 151855Z AUTO 29015G21KT 7SM BKN034 OVC042 M02/M09 A2986 RMK AO2 T10171092
KLWA 151835Z AUTO 29014G20KT 7SM BKN036 OVC042 M02/M10 A2986 RMK AO2 T10181096
KLWA 151815Z AUTO 28013G19KT 10SM OVC034 M02/M09 A2986 RMK AO2 T10181092
KLWA 151755Z AUTO 30012G21KT 7SM OVC034 M02/M09 A2986 RMK AO2 T10201087 11017 21025
KLWA 151735Z AUTO 28011G29KT 4SM -SN SCT026 OVC032 M02/M08 A2986 RMK AO2 T10221081
KLWA 151715Z AUTO 29019G24KT 10SM OVC034 M02/M09 A2986 RMK AO2 T10201089
KLWA 151655Z AUTO 29014G20KT 10SM -SN OVC032 M02/M09 A2986 RMK AO2 T10221086
KLWA 151635Z AUTO 29010G21KT 3SM -SN SCT023 SCT029 OVC037 M02/M08 A2986 RMK AO2 T10251082
KLWA 151615Z AUTO 28016G25KT 3SM HZ SCT031 OVC037 M02/M08 A2986 RMK AO2 T10201084
KLWA 151555Z AUTO 27013G22KT 7SM OVC031 M02/M08 A2986 RMK AO2 T10201081
KLWA 151535Z AUTO 27015G25KT 5SM HZ SCT024 OVC029 M02/M08 A2985 RMK AO2 T10201080
KLWA 151515Z AUTO 28013G25KT 2 1/2SM -SN SCT016 BKN023 OVC036 M02/M07 A2985 RMK AO2 T10201068
KLWA 151455Z AUTO 27017G22KT 4SM -SN BKN018 OVC024 M02/M06 A2984 RMK AO2 T10211057
KLWA 151435Z AUTO 26012G20KT 5SM -SN OVC020 M02/M06 A2984 RMK AO2 T10221061
KLWA 151415Z AUTO 26011G23KT 5SM -SN OVC020 M02/M06 A2984 RMK AO2 T10201060
KLWA 151355Z AUTO 25013G19KT 10SM OVC018 M02/M06 A2985 RMK AO2 T10201060
KLWA 151335Z AUTO 26012G20KT 10SM OVC018 M02/M06 A2985 RMK AO2 T10201060
KLWA 151315Z AUTO 26016G21KT 10SM OVC020 M02/M06 A2985 RMK AO2 T10201061
KLWA 151255Z AUTO 26013G19KT 10SM OVC020 M02/M06 A2985 RMK AO2 T10171063
KLWA 151235Z AUTO 25014G19KT 10SM OVC020 M02/M06 A2985 RMK AO2 T10181061
KLWA 151215Z AUTO 25012G17KT 10SM -SN OVC020 M02/M06 A2985 RMK AO2 T10181065
KLWA 151155Z AUTO 23010G17KT 200V270 10SM OVC020 M02/M06 A2986 RMK AO2 T10231065 11023 21048
KLWA 151135Z AUTO 21006KT 10SM OVC022 M04/M08 A2987 RMK AO2 T10401083
KLWA 151115Z AUTO 19006KT 10SM OVC022 M04/M09 A2987 RMK AO2 T10431088
KLWA 151055Z AUTO 20007KT 10SM OVC024 M04/M09 A2988 RMK AO2 T10451091
KLWA 151035Z AUTO 19008KT 10SM OVC026 M05/M09 A2989 RMK AO2 T10461092
KLWA 151015Z AUTO 20005KT 10SM BKN028 OVC037 M05/M09 A2990 RMK AO2 T10461092
KLWA 150955Z AUTO 18006KT 10SM BKN031 BKN038 OVC050 M04/M09 A2991 RMK AO2 T10451091
KLWA 150935Z AUTO 20005KT 10SM BKN032 OVC055 M04/M09 A2992 RMK AO2 T10451092
KLWA 150915Z AUTO 19004KT 10SM BKN030 OVC036 M04/M09 A2992 RMK AO2 T10431090
KLWA 150855Z AUTO 19006KT 10SM BKN029 OVC035 M04/M09 A2993 RMK AO2 T10421087
KLWA 150835Z AUTO 19005KT 10SM BKN029 OVC035 M04/M09 A2994 RMK AO2 T10441087
KLWA 150815Z AUTO 18004KT 10SM BKN029 OVC034 M04/M09 A2994 RMK AO2 T10451086
KLWA 150755Z AUTO 19004KT 10SM BKN029 OVC034 M05/M08 A2995 RMK AO2 T10471085
KLWA 150735Z AUTO 18004KT 10SM OVC033 M05/M08 A2995 RMK AO2 T10481081
KLWA 150715Z AUTO 17005KT 10SM OVC035 M05/M08 A2996 RMK AO2 T10471080
KLWA 150655Z AUTO 17004KT 10SM OVC035 M05/M08 A2996 RMK AO2 T10461081
KLWA 150635Z AUTO 19005KT 10SM SCT033 BKN039 OVC100 M05/M08 A2997 RMK AO2 T10461081
KLWA 150615Z AUTO 18005KT 10SM BKN036 OVC100 M05/M08 A2997 RMK AO2 T10471081
KLWA 150555Z AUTO 17005KT 10SM OVC036 M05/M08 A2999 RMK AO2 T10471083 11023 21052 410231166
KLWA 150535Z AUTO 18004KT 10SM OVC034 M05/M08 A2999 RMK AO2 T10471084
KLWA 150515Z AUTO 17006KT 10SM OVC034 M05/M08 A3000 RMK AO2 T10471085
KLWA 150455Z AUTO 00000KT 10SM OVC034 M05/M09 A3002 RMK AO2 T10461089
KLWA 150435Z AUTO 24004KT 10SM OVC036 M03/M10 A3002 RMK AO2 T10281098
KLWA 150415Z AUTO 24005KT 10SM OVC036 M02/M10 A3002 RMK AO2 T10241104
KLWA 150355Z AUTO 25005KT 10SM OVC034 M02/M09 A3003 RMK AO2 T10251095
KLWA 150335Z AUTO 26006KT 10SM OVC034 M02/M09 A3004 RMK AO2 T10251093
KLWA 150315Z AUTO 26004KT 10SM OVC036 M03/M10 A3004 RMK AO2 T10261099
KLWA 150255Z AUTO 28005KT 10SM OVC036 M03/M10 A3004 RMK AO2 T10281099
KLWA 150235Z AUTO 26007KT 10SM OVC034 M03/M10 A3004 RMK AO2 T10301096
KLWA 150215Z AUTO 26005KT 10SM BKN034 M03/M10 A3004 RMK AO2 T10311099
KLWA 150155Z AUTO 25004KT 10SM BKN034 M04/M09 A3005 RMK AO2 T10401093
KLWA 150135Z AUTO 00000KT 10SM BKN032 OVC038 M05/M08 A3005 RMK AO2 T10511079
KLWA 150115Z AUTO 00000KT 10SM SCT023 BKN030 OVC036 M05/M08 A3005 RMK AO2 T10501077
KLWA 150055Z AUTO 19003KT 10SM SCT026 OVC032 M05/M08 A3005 RMK AO2 T10501077
KLWA 150035Z AUTO 19005KT 10SM SCT024 BKN030 OVC036 M05/M08 A3005 RMK AO2 T10511078
KLWA 150015Z AUTO 19005KT 10SM SCT022 SCT027 OVC033 M05/M08 A3005 RMK AO2 T10511080
KLWA 142355Z AUTO 19005KT 10SM SCT025 OVC033 M05/M08 A3005 RMK AO2 T10511080 11045 21056
KLWA 142335Z AUTO 19006KT 10SM SCT025 OVC033 M05/M08 A3005 RMK AO2 T10521081
KLWA 142315Z AUTO 18005KT 10SM -SN SCT022 OVC033 M05/M08 A3005 RMK AO2 T10521082
KLWA 142255Z AUTO 18004KT 7SM -SN SCT020 BKN026 OVC036 M05/M08 A3004 RMK AO2 T10521083
KLWA 142235Z AUTO 19006KT 7SM -SN SCT017 SCT024 OVC036 M05/M09 A3004 RMK AO2 T10501086
KLWA 142215Z AUTO 19007KT 7SM -SN BKN024 OVC032 M05/M09 A3004 RMK AO2 T10471086
KLWA 142155Z AUTO 17004KT 7SM -SN BKN028 OVC035 M04/M09 A3003 RMK AO2 T10451089
KLWA 142135Z AUTO 17003KT 7SM -SN BKN028 OVC033 M05/M09 A3004 RMK AO2 T10461090
KLWA 142115Z AUTO 16003KT 10SM -SN OVC032 M04/M09 A3003 RMK AO2 T10451094
KLWA 142055Z AUTO 00000KT 5SM -SN OVC034 M05/M09 A3003 RMK AO2 T10461092
KLWA 142038Z AUTO 18004KT 7SM -SN OVC036 M05/M09 A3003 RMK AO2 T10471094
KLWA 142015Z AUTO 17004KT 10SM -SN OVC036 M05/M10 A3003 RMK AO2 T10501097
KLWA 141955Z AUTO 17004KT 10SM -SN OVC036 M05/M10 A3002 RMK AO2 T10501100
KLWA 141935Z AUTO 18004KT 10SM -SN SCT030 OVC035 M05/M10 A3003 RMK AO2 T10511100
KLWA 141915Z AUTO 17005KT 10SM -SN OVC035 M05/M10 A3004 RMK AO2 T10521102
KLWA 141855Z AUTO 19003KT 10SM -SN OVC035 M05/M10 A3004 RMK AO2 T10551105
KLWA 141835Z AUTO 17006KT 10SM -SN OVC035 M05/M10 A3003 RMK AO2 T10551105
KLWA 141815Z AUTO 15005KT 10SM -SN OVC037 M06/M11 A3004 RMK AO2 T10561107
KLWA 141755Z AUTO 16004KT 5SM -SN SCT031 OVC037 M06/M11 A3005 RMK AO2 T10561107 11055 21165
KLWA 141735Z AUTO 18008KT 10SM SCT031 OVC039 M06/M11 A3005 RMK AO2 T10561111
KLWA 141715Z AUTO 14005KT 10SM OVC039 M06/M11 A3005 RMK AO2 T10581115
KLWA 141655Z AUTO 18005KT 10SM OVC041 M06/M11 A3006 RMK AO2 T10621113
KLWA 141635Z AUTO 17003KT 10SM -SN SCT029 OVC041 M07/M11 A3006 RMK AO2 T10661115
KLWA 141615Z AUTO 17004KT 5SM -SN SCT016 BKN034 OVC043 M07/M11 A3006 RMK AO2 T10691115
KLWA 141555Z AUTO 17004KT 10SM -SN SCT023 SCT030 OVC047 M07/M12 A3005 RMK AO2 T10711116
KLWA 141535Z AUTO 00000KT 7SM -SN OVC047 M08/M12 A3005 RMK AO2 T10771118
KLWA 141515Z AUTO 00000KT 10SM OVC045 M08/M12 A3004 RMK AO2 T10821120
KLWA 141455Z AUTO 00000KT 4SM -SN SCT020 SCT026 OVC045 M09/M12 A3003 RMK AO2 T10861118
KLWA 141435Z AUTO 00000KT 7SM -SN SCT024 SCT032 OVC045 M09/M12 A3002 RMK AO2 T10901118
KLWA 141415Z AUTO 00000KT 10SM -SN OVC045 M10/M12 A3001 RMK AO2 T10981118
KLWA 141355Z AUTO 00000KT 10SM OVC045 M11/M13 A3000 RMK AO2 T11121129
KLWA 141335Z AUTO 18003KT 10SM OVC047 M13/M15 A3000 RMK AO2 T11301148
KLWA 141315Z AUTO 00000KT 10SM OVC047 M15/M16 A2998 RMK AO2 T11461165
KLWA 141255Z AUTO 00000KT 3SM -SN BKN047 M16/M18 A2997 RMK AO2 T11591181
KLWA 141235Z AUTO 00000KT 10SM BKN043 M16/M18 A2996 RMK AO2 T11571179
KLWA 141215Z AUTO 00000KT 4SM BR SCT041 M16/M18 A2995 RMK AO2 T11621184
KLWA 141155Z AUTO 00000KT 7SM SCT043 M16/M19 A2994 RMK AO2 T11641187 11072 21164